createdAt,value
2023-02-23T00:02:34.567Z,9.40
2023-02-23T00:07:36.848Z,5.00
2023-02-23T00:12:38.938Z,7.30
2023-02-23T00:17:41.202Z,7.50
2023-02-23T00:22:43.093Z,8.60
2023-02-23T00:27:46.179Z,10.40
2023-02-23T00:32:47.913Z,4.50
2023-02-23T00:37:50.006Z,9.10
2023-02-23T00:42:52.909Z,5.50
2023-02-23T00:47:55.082Z,9.50
2023-02-23T00:52:59.680Z,7.10
2023-02-23T00:58:01.726Z,7.60
2023-02-23T01:03:03.462Z,7.60
2023-02-23T01:08:09.396Z,6.90
2023-02-23T01:13:11.186Z,7.10
2023-02-23T01:18:13.853Z,6.50
2023-02-23T01:23:16.032Z,9.50
2023-02-23T01:28:17.943Z,9.30
2023-02-23T01:33:19.624Z,8.80
2023-02-23T01:38:21.366Z,9.10
2023-02-23T01:43:27.834Z,9.70
2023-02-23T01:48:36.370Z,10.20
2023-02-23T01:53:44.299Z,13.00
2023-02-23T01:58:52.210Z,9.00
2023-02-23T02:04:01.324Z,15.00
2023-02-23T02:09:08.266Z,12.20
2023-02-23T02:14:16.691Z,11.30
2023-02-23T02:19:37.617Z,10.20
2023-02-23T02:25:25.317Z,8.00
2023-02-23T02:30:27.200Z,6.40
2023-02-23T02:35:53.748Z,7.60
2023-02-23T02:41:04.163Z,8.00
2023-02-23T02:46:33.909Z,7.50
2023-02-23T02:51:55.497Z,11.30
2023-02-23T02:57:02.210Z,8.30
2023-02-23T03:02:32.901Z,14.10
2023-02-23T03:07:59.938Z,18.60
2023-02-23T03:13:47.048Z,18.50
2023-02-23T03:19:24.122Z,21.00
2023-02-23T03:25:14.224Z,22.80
2023-02-23T03:30:38.738Z,20.30
2023-02-23T03:36:22.165Z,14.00
2023-02-23T03:41:45.174Z,12.90
2023-02-23T03:47:07.523Z,14.60
2023-02-23T03:52:36.203Z,9.80
2023-02-23T03:57:58.674Z,6.50
2023-02-23T04:03:20.302Z,9.10
2023-02-23T04:08:47.250Z,8.40
2023-02-23T04:13:57.463Z,6.40
2023-02-23T04:19:00.274Z,8.30
2023-02-23T04:24:02.625Z,9.00
2023-02-23T04:29:04.614Z,6.90
2023-02-23T04:34:10.962Z,7.90
2023-02-23T04:39:12.683Z,6.50
2023-02-23T04:44:17.586Z,7.80
2023-02-23T04:49:19.267Z,9.50
2023-02-23T04:54:21.210Z,6.90
2023-02-23T04:59:28.652Z,6.80
2023-02-23T05:04:35.467Z,8.50
2023-02-23T05:09:41.130Z,15.60
2023-02-23T05:14:43.288Z,9.20
2023-02-23T05:19:45.264Z,9.60
2023-02-23T05:24:47.708Z,9.00
2023-02-23T05:29:52.013Z,7.90
2023-02-23T05:34:56.238Z,6.90
2023-02-23T05:40:00.370Z,19.10
2023-02-23T05:45:09.482Z,8.90
2023-02-23T05:50:14.850Z,9.20
2023-02-23T05:55:16.771Z,8.90
2023-02-23T06:00:19.819Z,6.40
2023-02-23T06:05:24.855Z,8.40
2023-02-23T06:10:27.338Z,23.90
2023-02-23T06:15:30.069Z,16.30
2023-02-23T06:20:32.290Z,11.30
2023-02-23T06:25:34.154Z,12.10
2023-02-23T06:30:37.294Z,10.10
2023-02-23T06:35:39.359Z,8.30
2023-02-23T06:40:41.819Z,11.50
2023-02-23T06:45:43.967Z,14.50
2023-02-23T06:50:45.573Z,12.30
2023-02-23T06:55:47.737Z,10.80
2023-02-23T07:00:49.561Z,9.70
2023-02-23T07:05:52.561Z,14.20
2023-02-23T07:10:54.733Z,12.80
2023-02-23T07:15:57.911Z,11.70
2023-02-23T07:20:59.537Z,10.30
2023-02-23T07:26:02.292Z,9.20
2023-02-23T07:31:04.151Z,9.10
2023-02-23T07:36:06.257Z,9.70
2023-02-23T07:41:08.151Z,12.40
2023-02-23T07:46:09.944Z,8.00
2023-02-23T07:51:13.531Z,9.30
2023-02-23T07:56:15.304Z,9.20
2023-02-23T08:01:17.040Z,12.10
2023-02-23T08:06:21.108Z,13.90
2023-02-23T08:11:23.491Z,12.40
2023-02-23T08:16:25.124Z,15.70
2023-02-23T08:21:29.655Z,12.10
2023-02-23T08:26:31.330Z,15.30
2023-02-23T08:31:33.455Z,11.30
2023-02-23T08:36:35.626Z,11.30
2023-02-23T08:41:37.505Z,10.10
2023-02-23T08:46:39.071Z,11.00
2023-02-23T08:51:41.587Z,11.80
2023-02-23T08:56:44.939Z,13.30
2023-02-23T09:01:46.505Z,10.90
2023-02-23T09:06:50.428Z,12.20
2023-02-23T09:11:52.013Z,12.20
2023-02-23T09:16:53.766Z,14.10
2023-02-23T09:21:55.526Z,12.60
2023-02-23T09:26:57.114Z,12.00
2023-02-23T09:31:59.153Z,10.50
2023-02-23T09:37:04.199Z,8.40
2023-02-23T09:42:30.531Z,8.70
2023-02-23T09:48:07.031Z,9.00
2023-02-23T09:53:23.912Z,10.00
2023-02-23T09:58:32.054Z,9.50
2023-02-23T10:03:40.923Z,11.20
2023-02-23T10:09:11.804Z,7.90
2023-02-23T10:14:29.695Z,12.90
2023-02-23T10:20:02.522Z,10.70
2023-02-23T10:25:19.913Z,11.40
2023-02-23T10:30:25.045Z,8.70
2023-02-23T10:35:30.006Z,9.40
2023-02-23T10:40:35.765Z,8.30
2023-02-23T10:45:44.425Z,13.00
2023-02-23T10:50:49.227Z,9.60
2023-02-23T10:56:11.197Z,7.90
2023-02-23T11:01:15.825Z,8.20
2023-02-23T11:06:31.554Z,11.30
2023-02-23T11:11:33.081Z,8.60
2023-02-23T11:16:39.250Z,7.70
2023-02-23T11:21:41.361Z,10.20
2023-02-23T11:26:45.024Z,8.20
2023-02-23T11:31:51.473Z,10.90
2023-02-23T11:37:07.327Z,9.40
2023-02-23T11:42:25.364Z,7.90
2023-02-23T11:47:26.997Z,11.50
2023-02-23T11:52:29.494Z,9.50
2023-02-23T11:57:35.753Z,7.30
2023-02-23T12:02:49.490Z,8.00
2023-02-23T12:08:01.453Z,8.80
2023-02-23T12:13:07.563Z,7.60
2023-02-23T12:18:15.253Z,10.00
2023-02-23T12:23:22.481Z,8.10
2023-02-23T12:28:36.385Z,11.10
2023-02-23T12:33:44.867Z,6.80
2023-02-23T12:39:05.090Z,7.90
2023-02-23T12:44:15.390Z,10.00
2023-02-23T12:49:30.390Z,14.60
2023-02-23T12:54:32.856Z,11.30
2023-02-23T13:00:20.394Z,10.00
2023-02-23T13:05:41.422Z,9.00
2023-02-23T13:11:03.909Z,9.00
2023-02-23T13:16:18.388Z,15.60
2023-02-23T13:21:28.737Z,10.30
2023-02-23T13:26:57.600Z,11.00
2023-02-23T13:32:01.877Z,10.70
2023-02-23T13:37:07.472Z,7.20
2023-02-23T13:42:28.111Z,8.50
2023-02-23T13:47:56.939Z,11.50
2023-02-23T13:53:04.951Z,8.70
2023-02-23T13:58:17.466Z,13.80
2023-02-23T14:03:30.417Z,14.40
2023-02-23T14:08:36.714Z,11.10
2023-02-23T14:13:57.508Z,10.10
2023-02-23T14:19:30.778Z,10.00
2023-02-23T14:24:32.567Z,10.00
2023-02-23T14:29:43.863Z,15.80
2023-02-23T14:34:52.596Z,9.70
2023-02-23T14:40:02.122Z,8.70
2023-02-23T14:45:27.400Z,12.00
2023-02-23T14:50:35.381Z,11.40
2023-02-23T14:55:43.445Z,12.90
2023-02-23T15:00:45.360Z,10.60
2023-02-23T15:05:52.808Z,15.40
2023-02-23T15:11:13.574Z,15.00
2023-02-23T15:16:38.017Z,16.60
2023-02-23T15:21:40.623Z,13.00
2023-02-23T15:26:44.216Z,16.00
2023-02-23T15:31:52.611Z,14.60
2023-02-23T15:37:07.593Z,16.30
2023-02-23T15:42:15.415Z,18.90
2023-02-23T15:47:23.174Z,13.90
2023-02-23T15:52:25.734Z,14.90
2023-02-23T15:57:31.497Z,18.60
2023-02-23T16:02:36.651Z,17.60
2023-02-23T16:07:43.658Z,22.60
2023-02-23T16:12:49.336Z,21.90
2023-02-23T16:17:57.852Z,21.80
2023-02-23T16:22:59.711Z,18.80
2023-02-23T16:28:08.266Z,21.30
2023-02-23T16:33:20.825Z,19.90
2023-02-23T16:38:57.139Z,18.60
2023-02-23T16:44:34.249Z,26.90
2023-02-23T16:49:43.268Z,20.00
2023-02-23T16:54:48.521Z,24.00
2023-02-23T16:59:51.748Z,25.10
2023-02-23T17:04:58.775Z,29.00
2023-02-23T17:10:00.783Z,41.50
2023-02-23T17:15:04.412Z,29.90
2023-02-23T17:20:12.622Z,20.80
2023-02-23T17:25:14.653Z,22.50
2023-02-23T17:30:17.097Z,21.80
2023-02-23T17:35:19.671Z,19.80
2023-02-23T17:40:26.744Z,18.80
2023-02-23T17:45:29.077Z,22.80
2023-02-23T17:50:31.005Z,26.50
2023-02-23T17:55:32.625Z,20.20
2023-02-23T18:00:37.942Z,14.70
2023-02-23T18:05:39.972Z,23.00
2023-02-23T18:10:41.707Z,75.00
2023-02-23T18:15:50.159Z,30.90
2023-02-23T18:20:54.244Z,26.20
2023-02-23T18:25:56.352Z,20.80
2023-02-23T18:30:58.937Z,24.30
2023-02-23T18:36:00.680Z,51.00
2023-02-23T18:41:02.607Z,24.20
2023-02-23T18:46:08.963Z,41.90
2023-02-23T18:51:14.344Z,26.30
2023-02-23T18:56:23.167Z,34.20
2023-02-23T19:01:28.364Z,99.80
2023-02-23T19:06:31.428Z,38.40
2023-02-23T19:11:35.137Z,31.30
2023-02-23T19:16:38.291Z,42.20
2023-02-23T19:21:40.732Z,24.60
2023-02-23T19:26:42.913Z,21.40
2023-02-23T19:31:44.663Z,22.30
2023-02-23T19:36:46.453Z,22.50
2023-02-23T19:41:48.082Z,22.50
2023-02-23T19:46:49.894Z,24.60
2023-02-23T19:51:53.043Z,53.50
2023-02-23T19:56:56.320Z,33.70
2023-02-23T20:01:59.249Z,31.70
2023-02-23T20:07:03.281Z,26.60
2023-02-23T20:12:05.901Z,25.50
2023-02-23T20:17:09.311Z,30.60
2023-02-23T20:22:12.679Z,22.10
2023-02-23T20:27:14.693Z,18.80
2023-02-23T20:32:20.498Z,20.70
2023-02-23T20:37:22.231Z,27.90
2023-02-23T20:42:25.237Z,24.40
2023-02-23T20:47:27.491Z,23.60
2023-02-23T20:52:29.092Z,26.20
2023-02-23T20:57:32.090Z,29.10
2023-02-23T21:02:37.405Z,21.90
2023-02-23T21:07:41.158Z,18.70
2023-02-23T21:12:43.019Z,23.20
2023-02-23T21:17:44.802Z,29.70
2023-02-23T21:22:49.376Z,30.00
2023-02-23T21:27:52.120Z,32.00
2023-02-23T21:32:55.071Z,33.00
2023-02-23T21:37:57.169Z,22.70
2023-02-23T21:43:01.298Z,28.90
2023-02-23T21:48:04.610Z,36.10
2023-02-23T21:53:06.942Z,29.20
2023-02-23T21:58:08.619Z,32.80
2023-02-23T22:03:10.725Z,35.70
2023-02-23T22:08:16.014Z,34.20
2023-02-23T22:13:18.779Z,26.70
2023-02-23T22:18:20.702Z,34.30
2023-02-23T22:23:22.339Z,30.20
2023-02-23T22:28:23.877Z,31.50
2023-02-23T22:33:25.554Z,28.50
2023-02-23T22:38:27.702Z,34.80
2023-02-23T22:43:31.149Z,36.10
2023-02-23T22:48:32.731Z,35.80
2023-02-23T22:53:34.327Z,31.70
2023-02-23T22:58:36.445Z,29.20
2023-02-23T23:03:39.882Z,32.00
2023-02-23T23:08:46.105Z,42.90
2023-02-23T23:13:51.377Z,44.90
2023-02-23T23:18:56.066Z,68.80
2023-02-23T23:24:01.347Z,101.10
2023-02-23T23:29:04.875Z,51.20
2023-02-23T23:34:10.434Z,41.80
2023-02-23T23:39:13.650Z,55.40
2023-02-23T23:44:29.508Z,69.90
2023-02-23T23:49:37.970Z,39.60
2023-02-23T23:54:41.304Z,32.00
2023-02-23T23:59:46.519Z,31.10
